sensor_id;sensor_type;location;lat;lon;timestamp;temperature;humidity
40868;DHT22;26586;50.708;22.412;2023-08-17T00:01:56;27.20;61.90
40868;DHT22;26586;50.708;22.412;2023-08-17T00:04:22;27.20;61.80
40868;DHT22;26586;50.708;22.412;2023-08-17T00:06:48;27.10;61.80
40868;DHT22;26586;50.708;22.412;2023-08-17T00:09:14;27.10;61.70
40868;DHT22;26586;50.708;22.412;2023-08-17T00:11:41;27.10;61.70
40868;DHT22;26586;50.708;22.412;2023-08-17T00:14:07;27.10;61.60
40868;DHT22;26586;50.708;22.412;2023-08-17T00:16:33;27.10;61.70
40868;DHT22;26586;50.708;22.412;2023-08-17T00:18:59;27.10;61.70
40868;DHT22;26586;50.708;22.412;2023-08-17T00:21:25;27.00;61.60
40868;DHT22;26586;50.708;22.412;2023-08-17T00:23:52;27.10;61.70
40868;DHT22;26586;50.708;22.412;2023-08-17T00:26:18;27.00;61.60
40868;DHT22;26586;50.708;22.412;2023-08-17T00:31:19;27.00;62.20
40868;DHT22;26586;50.708;22.412;2023-08-17T00:33:46;27.00;62.10
40868;DHT22;26586;50.708;22.412;2023-08-17T00:36:12;27.00;62.10
40868;DHT22;26586;50.708;22.412;2023-08-17T00:38:39;27.00;62.90
40868;DHT22;26586;50.708;22.412;2023-08-17T00:41:05;27.00;63.10
40868;DHT22;26586;50.708;22.412;2023-08-17T00:43:31;26.90;63.20
40868;DHT22;26586;50.708;22.412;2023-08-17T00:45:57;26.90;62.90
40868;DHT22;26586;50.708;22.412;2023-08-17T00:48:25;26.90;62.80
40868;DHT22;26586;50.708;22.412;2023-08-17T00:50:52;26.90;62.70
40868;DHT22;26586;50.708;22.412;2023-08-17T00:53:20;26.90;62.80
40868;DHT22;26586;50.708;22.412;2023-08-17T00:55:46;26.90;63.20
40868;DHT22;26586;50.708;22.412;2023-08-17T00:58:14;26.90;62.90
40868;DHT22;26586;50.708;22.412;2023-08-17T01:00:40;26.90;64.00
40868;DHT22;26586;50.708;22.412;2023-08-17T01:03:07;26.90;63.80
40868;DHT22;26586;50.708;22.412;2023-08-17T01:05:33;26.90;63.70
40868;DHT22;26586;50.708;22.412;2023-08-17T01:08:00;26.80;63.20
40868;DHT22;26586;50.708;22.412;2023-08-17T01:10:51;26.80;63.10
40868;DHT22;26586;50.708;22.412;2023-08-17T01:13:31;26.80;63.00
40868;DHT22;26586;50.708;22.412;2023-08-17T01:16:02;26.80;62.90
40868;DHT22;26586;50.708;22.412;2023-08-17T01:18:35;26.80;62.90
40868;DHT22;26586;50.708;22.412;2023-08-17T01:21:06;26.80;63.10
40868;DHT22;26586;50.708;22.412;2023-08-17T01:23:34;26.80;63.20
40868;DHT22;26586;50.708;22.412;2023-08-17T01:26:00;26.80;63.50
40868;DHT22;26586;50.708;22.412;2023-08-17T01:28:27;26.80;63.60
40868;DHT22;26586;50.708;22.412;2023-08-17T01:31:05;26.70;63.90
40868;DHT22;26586;50.708;22.412;2023-08-17T01:33:37;26.70;63.80
40868;DHT22;26586;50.708;22.412;2023-08-17T01:36:20;26.70;64.40
40868;DHT22;26586;50.708;22.412;2023-08-17T01:38:51;26.70;64.50
40868;DHT22;26586;50.708;22.412;2023-08-17T01:41:20;26.70;64.40
40868;DHT22;26586;50.708;22.412;2023-08-17T01:43:47;26.70;64.50
40868;DHT22;26586;50.708;22.412;2023-08-17T01:46:14;26.70;64.30
40868;DHT22;26586;50.708;22.412;2023-08-17T01:48:42;26.70;64.90
40868;DHT22;26586;50.708;22.412;2023-08-17T01:51:09;26.60;64.60
40868;DHT22;26586;50.708;22.412;2023-08-17T01:53:36;26.70;64.50
40868;DHT22;26586;50.708;22.412;2023-08-17T01:56:02;26.60;64.50
40868;DHT22;26586;50.708;22.412;2023-08-17T01:58:28;26.60;64.40
40868;DHT22;26586;50.708;22.412;2023-08-17T02:00:54;26.60;65.20
40868;DHT22;26586;50.708;22.412;2023-08-17T02:03:21;26.60;64.90
40868;DHT22;26586;50.708;22.412;2023-08-17T02:05:47;26.50;64.50
40868;DHT22;26586;50.708;22.412;2023-08-17T02:08:13;26.50;64.40
40868;DHT22;26586;50.708;22.412;2023-08-17T02:10:39;26.60;64.40
40868;DHT22;26586;50.708;22.412;2023-08-17T02:13:06;26.60;64.60
40868;DHT22;26586;50.708;22.412;2023-08-17T02:15:32;26.50;64.20
40868;DHT22;26586;50.708;22.412;2023-08-17T02:18:00;26.50;64.20
40868;DHT22;26586;50.708;22.412;2023-08-17T02:20:27;26.50;64.10
40868;DHT22;26586;50.708;22.412;2023-08-17T02:22:53;26.50;64.00
40868;DHT22;26586;50.708;22.412;2023-08-17T02:25:19;26.50;63.90
40868;DHT22;26586;50.708;22.412;2023-08-17T02:27:46;26.50;63.70
40868;DHT22;26586;50.708;22.412;2023-08-17T02:30:12;26.50;63.70
40868;DHT22;26586;50.708;22.412;2023-08-17T02:32:39;26.40;63.70
40868;DHT22;26586;50.708;22.412;2023-08-17T02:35:06;26.50;63.50
40868;DHT22;26586;50.708;22.412;2023-08-17T02:37:32;26.40;63.50
40868;DHT22;26586;50.708;22.412;2023-08-17T02:39:59;26.40;63.50
40868;DHT22;26586;50.708;22.412;2023-08-17T02:42:25;26.40;63.40
40868;DHT22;26586;50.708;22.412;2023-08-17T02:44:51;26.40;63.40
40868;DHT22;26586;50.708;22.412;2023-08-17T02:47:17;26.40;63.40
40868;DHT22;26586;50.708;22.412;2023-08-17T02:49:43;26.40;63.50
40868;DHT22;26586;50.708;22.412;2023-08-17T02:52:10;26.40;63.50
40868;DHT22;26586;50.708;22.412;2023-08-17T02:54:36;26.40;63.50
40868;DHT22;26586;50.708;22.412;2023-08-17T02:57:03;26.40;63.50
40868;DHT22;26586;50.708;22.412;2023-08-17T02:59:29;26.40;63.50
40868;DHT22;26586;50.708;22.412;2023-08-17T03:01:55;26.40;63.40
40868;DHT22;26586;50.708;22.412;2023-08-17T03:04:21;26.30;64.10
40868;DHT22;26586;50.708;22.412;2023-08-17T03:06:48;26.30;63.30
40868;DHT22;26586;50.708;22.412;2023-08-17T03:09:14;26.30;63.20
40868;DHT22;26586;50.708;22.412;2023-08-17T03:11:40;26.30;63.30
40868;DHT22;26586;50.708;22.412;2023-08-17T03:14:06;26.30;63.30
40868;DHT22;26586;50.708;22.412;2023-08-17T03:16:33;26.30;63.40
40868;DHT22;26586;50.708;22.412;2023-08-17T03:18:59;26.30;63.30
40868;DHT22;26586;50.708;22.412;2023-08-17T03:21:25;26.30;63.40
40868;DHT22;26586;50.708;22.412;2023-08-17T03:23:52;26.30;63.50
40868;DHT22;26586;50.708;22.412;2023-08-17T03:26:18;26.30;63.50
40868;DHT22;26586;50.708;22.412;2023-08-17T03:28:45;26.30;63.20
40868;DHT22;26586;50.708;22.412;2023-08-17T03:31:11;26.30;63.00
40868;DHT22;26586;50.708;22.412;2023-08-17T03:33:37;26.30;63.10
40868;DHT22;26586;50.708;22.412;2023-08-17T03:36:04;26.30;62.90
40868;DHT22;26586;50.708;22.412;2023-08-17T03:38:30;26.30;62.80
40868;DHT22;26586;50.708;22.412;2023-08-17T03:40:56;26.30;62.80
40868;DHT22;26586;50.708;22.412;2023-08-17T03:43:22;26.20;62.80
40868;DHT22;26586;50.708;22.412;2023-08-17T03:45:49;26.30;62.80
40868;DHT22;26586;50.708;22.412;2023-08-17T03:48:15;26.20;62.80
40868;DHT22;26586;50.708;22.412;2023-08-17T03:50:41;26.20;62.80
40868;DHT22;26586;50.708;22.412;2023-08-17T03:53:07;26.30;63.00
40868;DHT22;26586;50.708;22.412;2023-08-17T03:55:34;26.20;62.80
40868;DHT22;26586;50.708;22.412;2023-08-17T03:58:00;26.30;62.70
40868;DHT22;26586;50.708;22.412;2023-08-17T04:00:26;26.20;62.80
40868;DHT22;26586;50.708;22.412;2023-08-17T04:02:52;26.20;62.90
40868;DHT22;26586;50.708;22.412;2023-08-17T04:05:18;26.20;62.90
40868;DHT22;26586;50.708;22.412;2023-08-17T04:07:44;26.20;62.70
40868;DHT22;26586;50.708;22.412;2023-08-17T04:10:11;26.20;62.70
40868;DHT22;26586;50.708;22.412;2023-08-17T04:12:37;26.20;62.70
40868;DHT22;26586;50.708;22.412;2023-08-17T04:15:04;26.20;62.90
40868;DHT22;26586;50.708;22.412;2023-08-17T04:17:30;26.20;62.50
40868;DHT22;26586;50.708;22.412;2023-08-17T04:19:56;26.20;62.50
40868;DHT22;26586;50.708;22.412;2023-08-17T04:22:22;26.20;62.50
40868;DHT22;26586;50.708;22.412;2023-08-17T04:24:49;26.20;62.50
40868;DHT22;26586;50.708;22.412;2023-08-17T04:27:15;26.20;62.50
40868;DHT22;26586;50.708;22.412;2023-08-17T04:29:41;26.20;62.40
40868;DHT22;26586;50.708;22.412;2023-08-17T04:32:07;26.20;62.50
40868;DHT22;26586;50.708;22.412;2023-08-17T04:34:34;26.20;62.40
40868;DHT22;26586;50.708;22.412;2023-08-17T04:37:01;26.10;62.40
40868;DHT22;26586;50.708;22.412;2023-08-17T04:39:28;26.10;62.50
40868;DHT22;26586;50.708;22.412;2023-08-17T04:41:54;26.10;62.40
40868;DHT22;26586;50.708;22.412;2023-08-17T04:44:21;26.20;63.50
40868;DHT22;26586;50.708;22.412;2023-08-17T04:46:47;26.20;63.60
40868;DHT22;26586;50.708;22.412;2023-08-17T04:49:13;26.10;62.70
40868;DHT22;26586;50.708;22.412;2023-08-17T04:51:39;26.10;62.60
40868;DHT22;26586;50.708;22.412;2023-08-17T04:54:05;26.10;62.60
40868;DHT22;26586;50.708;22.412;2023-08-17T04:56:32;26.10;62.60
40868;DHT22;26586;50.708;22.412;2023-08-17T04:58:58;26.10;62.70
40868;DHT22;26586;50.708;22.412;2023-08-17T05:01:24;26.10;62.70
40868;DHT22;26586;50.708;22.412;2023-08-17T05:03:50;26.10;62.60
40868;DHT22;26586;50.708;22.412;2023-08-17T05:06:17;26.10;62.70
40868;DHT22;26586;50.708;22.412;2023-08-17T05:08:43;26.10;62.70
40868;DHT22;26586;50.708;22.412;2023-08-17T05:11:09;26.10;62.70
40868;DHT22;26586;50.708;22.412;2023-08-17T05:13:36;26.20;62.80
40868;DHT22;26586;50.708;22.412;2023-08-17T05:16:02;26.10;62.70
40868;DHT22;26586;50.708;22.412;2023-08-17T05:18:29;26.10;62.70
40868;DHT22;26586;50.708;22.412;2023-08-17T05:20:55;26.10;62.80
40868;DHT22;26586;50.708;22.412;2023-08-17T05:23:21;26.20;62.90
40868;DHT22;26586;50.708;22.412;2023-08-17T05:25:48;26.10;62.90
40868;DHT22;26586;50.708;22.412;2023-08-17T05:28:14;26.10;62.90
40868;DHT22;26586;50.708;22.412;2023-08-17T05:30:40;26.10;63.00
40868;DHT22;26586;50.708;22.412;2023-08-17T05:33:06;26.10;62.90
40868;DHT22;26586;50.708;22.412;2023-08-17T05:35:33;26.10;63.10
40868;DHT22;26586;50.708;22.412;2023-08-17T05:37:59;26.20;63.10
40868;DHT22;26586;50.708;22.412;2023-08-17T05:40:26;26.20;64.00
40868;DHT22;26586;50.708;22.412;2023-08-17T05:42:52;26.10;63.50
40868;DHT22;26586;50.708;22.412;2023-08-17T05:45:18;26.10;64.00
40868;DHT22;26586;50.708;22.412;2023-08-17T05:47:44;26.20;64.00
40868;DHT22;26586;50.708;22.412;2023-08-17T05:50:11;26.20;64.30
40868;DHT22;26586;50.708;22.412;2023-08-17T05:52:37;26.20;64.30
40868;DHT22;26586;50.708;22.412;2023-08-17T05:55:04;26.20;64.30
40868;DHT22;26586;50.708;22.412;2023-08-17T05:57:30;26.20;64.40
40868;DHT22;26586;50.708;22.412;2023-08-17T05:59:56;26.20;64.50
40868;DHT22;26586;50.708;22.412;2023-08-17T06:02:23;26.20;64.70
40868;DHT22;26586;50.708;22.412;2023-08-17T06:04:49;26.20;64.60
40868;DHT22;26586;50.708;22.412;2023-08-17T06:07:15;26.30;64.90
40868;DHT22;26586;50.708;22.412;2023-08-17T06:09:41;26.30;65.00
40868;DHT22;26586;50.708;22.412;2023-08-17T06:12:08;26.30;65.60
40868;DHT22;26586;50.708;22.412;2023-08-17T06:14:34;26.30;65.30
40868;DHT22;26586;50.708;22.412;2023-08-17T06:17:00;26.30;65.20
40868;DHT22;26586;50.708;22.412;2023-08-17T06:19:27;26.30;66.00
40868;DHT22;26586;50.708;22.412;2023-08-17T06:21:53;26.40;66.10
40868;DHT22;26586;50.708;22.412;2023-08-17T06:24:19;26.40;65.90
40868;DHT22;26586;50.708;22.412;2023-08-17T06:26:45;26.40;66.00
40868;DHT22;26586;50.708;22.412;2023-08-17T06:29:11;26.40;66.30
40868;DHT22;26586;50.708;22.412;2023-08-17T06:31:38;26.40;65.70
40868;DHT22;26586;50.708;22.412;2023-08-17T06:34:04;26.50;65.70
40868;DHT22;26586;50.708;22.412;2023-08-17T06:36:31;26.50;66.10
40868;DHT22;26586;50.708;22.412;2023-08-17T06:38:58;26.50;66.20
40868;DHT22;26586;50.708;22.412;2023-08-17T06:41:25;26.50;66.60
40868;DHT22;26586;50.708;22.412;2023-08-17T06:43:51;26.60;66.60
40868;DHT22;26586;50.708;22.412;2023-08-17T06:46:17;26.60;65.90
40868;DHT22;26586;50.708;22.412;2023-08-17T06:48:44;26.70;66.00
40868;DHT22;26586;50.708;22.412;2023-08-17T06:51:10;26.70;65.50
40868;DHT22;26586;50.708;22.412;2023-08-17T06:53:36;26.70;65.40
40868;DHT22;26586;50.708;22.412;2023-08-17T06:56:03;26.80;65.50
40868;DHT22;26586;50.708;22.412;2023-08-17T06:58:29;26.80;65.10
40868;DHT22;26586;50.708;22.412;2023-08-17T07:00:55;26.90;65.00
40868;DHT22;26586;50.708;22.412;2023-08-17T07:03:21;26.90;64.60
40868;DHT22;26586;50.708;22.412;2023-08-17T07:05:48;27.00;64.40
40868;DHT22;26586;50.708;22.412;2023-08-17T07:08:14;27.00;64.20
40868;DHT22;26586;50.708;22.412;2023-08-17T07:10:40;27.00;64.00
40868;DHT22;26586;50.708;22.412;2023-08-17T07:13:06;27.10;63.70
40868;DHT22;26586;50.708;22.412;2023-08-17T07:15:33;27.20;63.10
40868;DHT22;26586;50.708;22.412;2023-08-17T07:17:59;27.20;63.00
40868;DHT22;26586;50.708;22.412;2023-08-17T07:20:26;27.30;62.40
40868;DHT22;26586;50.708;22.412;2023-08-17T07:22:52;27.30;62.10
40868;DHT22;26586;50.708;22.412;2023-08-17T07:25:18;27.40;61.70
40868;DHT22;26586;50.708;22.412;2023-08-17T07:27:44;27.40;61.40
40868;DHT22;26586;50.708;22.412;2023-08-17T07:30:11;27.50;61.30
40868;DHT22;26586;50.708;22.412;2023-08-17T07:32:37;27.50;61.40
40868;DHT22;26586;50.708;22.412;2023-08-17T07:35:04;27.50;61.30
40868;DHT22;26586;50.708;22.412;2023-08-17T07:37:30;27.70;61.40
40868;DHT22;26586;50.708;22.412;2023-08-17T07:39:59;27.70;61.20
40868;DHT22;26586;50.708;22.412;2023-08-17T07:42:26;27.80;61.30
40868;DHT22;26586;50.708;22.412;2023-08-17T07:44:52;27.90;61.10
40868;DHT22;26586;50.708;22.412;2023-08-17T07:47:18;27.90;61.00
40868;DHT22;26586;50.708;22.412;2023-08-17T07:49:44;27.90;61.30
40868;DHT22;26586;50.708;22.412;2023-08-17T07:52:10;28.00;61.10
40868;DHT22;26586;50.708;22.412;2023-08-17T07:54:37;28.00;61.30
40868;DHT22;26586;50.708;22.412;2023-08-17T07:57:03;28.10;60.80
40868;DHT22;26586;50.708;22.412;2023-08-17T07:59:29;28.10;60.80
40868;DHT22;26586;50.708;22.412;2023-08-17T08:01:55;28.20;60.80
40868;DHT22;26586;50.708;22.412;2023-08-17T08:04:22;28.30;60.80
40868;DHT22;26586;50.708;22.412;2023-08-17T08:06:48;28.30;61.10
40868;DHT22;26586;50.708;22.412;2023-08-17T08:09:14;28.40;61.30
40868;DHT22;26586;50.708;22.412;2023-08-17T08:11:40;28.50;61.50
40868;DHT22;26586;50.708;22.412;2023-08-17T08:14:07;28.60;61.70
40868;DHT22;26586;50.708;22.412;2023-08-17T08:16:33;28.60;61.30
40868;DHT22;26586;50.708;22.412;2023-08-17T08:18:59;28.70;61.10
40868;DHT22;26586;50.708;22.412;2023-08-17T08:21:25;28.80;61.70
40868;DHT22;26586;50.708;22.412;2023-08-17T08:23:53;28.90;61.80
40868;DHT22;26586;50.708;22.412;2023-08-17T08:26:19;28.90;61.40
40868;DHT22;26586;50.708;22.412;2023-08-17T08:28:46;29.00;61.70
40868;DHT22;26586;50.708;22.412;2023-08-17T08:31:12;29.10;61.80
40868;DHT22;26586;50.708;22.412;2023-08-17T08:33:38;29.10;61.10
40868;DHT22;26586;50.708;22.412;2023-08-17T08:36:05;29.20;61.80
40868;DHT22;26586;50.708;22.412;2023-08-17T08:38:35;29.30;62.50
40868;DHT22;26586;50.708;22.412;2023-08-17T08:41:02;29.30;61.50
40868;DHT22;26586;50.708;22.412;2023-08-17T08:43:30;29.40;61.30
40868;DHT22;26586;50.708;22.412;2023-08-17T08:45:59;29.50;61.40
40868;DHT22;26586;50.708;22.412;2023-08-17T08:48:26;29.50;61.80
40868;DHT22;26586;50.708;22.412;2023-08-17T08:50:55;29.60;61.50
40868;DHT22;26586;50.708;22.412;2023-08-17T08:53:31;29.70;61.50
40868;DHT22;26586;50.708;22.412;2023-08-17T08:55:59;29.70;61.30
40868;DHT22;26586;50.708;22.412;2023-08-17T08:58:29;29.80;61.70
40868;DHT22;26586;50.708;22.412;2023-08-17T09:00:57;29.80;61.70
40868;DHT22;26586;50.708;22.412;2023-08-17T09:03:25;29.90;61.40
40868;DHT22;26586;50.708;22.412;2023-08-17T09:05:52;29.90;59.90
40868;DHT22;26586;50.708;22.412;2023-08-17T09:08:22;30.00;60.00
40868;DHT22;26586;50.708;22.412;2023-08-17T09:10:49;30.10;60.20
40868;DHT22;26586;50.708;22.412;2023-08-17T09:13:16;30.10;59.80
40868;DHT22;26586;50.708;22.412;2023-08-17T09:15:42;30.20;60.10
40868;DHT22;26586;50.708;22.412;2023-08-17T09:18:12;30.20;59.60
40868;DHT22;26586;50.708;22.412;2023-08-17T09:20:43;30.30;60.20
40868;DHT22;26586;50.708;22.412;2023-08-17T09:23:21;30.30;59.90
40868;DHT22;26586;50.708;22.412;2023-08-17T09:25:49;30.40;60.00
40868;DHT22;26586;50.708;22.412;2023-08-17T09:28:17;30.40;58.80
40868;DHT22;26586;50.708;22.412;2023-08-17T09:33:21;30.50;57.30
40868;DHT22;26586;50.708;22.412;2023-08-17T09:35:49;30.50;58.70
40868;DHT22;26586;50.708;22.412;2023-08-17T09:38:17;30.60;58.70
40868;DHT22;26586;50.708;22.412;2023-08-17T09:40:43;30.70;58.40
40868;DHT22;26586;50.708;22.412;2023-08-17T09:43:10;30.70;58.10
40868;DHT22;26586;50.708;22.412;2023-08-17T09:45:40;30.70;57.10
40868;DHT22;26586;50.708;22.412;2023-08-17T09:48:07;30.80;56.20
40868;DHT22;26586;50.708;22.412;2023-08-17T09:50:36;30.80;56.00
40868;DHT22;26586;50.708;22.412;2023-08-17T09:53:05;30.90;55.10
40868;DHT22;26586;50.708;22.412;2023-08-17T09:55:31;30.90;56.40
40868;DHT22;26586;50.708;22.412;2023-08-17T09:58:00;30.90;57.20
40868;DHT22;26586;50.708;22.412;2023-08-17T10:00:27;31.00;57.80
40868;DHT22;26586;50.708;22.412;2023-08-17T10:02:55;31.00;55.30
40868;DHT22;26586;50.708;22.412;2023-08-17T10:05:25;31.10;56.20
40868;DHT22;26586;50.708;22.412;2023-08-17T10:07:57;31.10;56.70
40868;DHT22;26586;50.708;22.412;2023-08-17T10:10:28;31.10;57.10
40868;DHT22;26586;50.708;22.412;2023-08-17T10:13:23;31.20;56.90
40868;DHT22;26586;50.708;22.412;2023-08-17T10:21:18;31.30;57.00
40868;DHT22;26586;50.708;22.412;2023-08-17T10:23:48;31.30;57.10
40868;DHT22;26586;50.708;22.412;2023-08-17T10:26:14;31.30;56.70
40868;DHT22;26586;50.708;22.412;2023-08-17T10:28:42;31.40;56.70
40868;DHT22;26586;50.708;22.412;2023-08-17T10:31:09;31.40;56.90
40868;DHT22;26586;50.708;22.412;2023-08-17T10:33:37;31.40;57.10
40868;DHT22;26586;50.708;22.412;2023-08-17T10:36:05;31.40;56.70
40868;DHT22;26586;50.708;22.412;2023-08-17T10:38:37;31.50;57.00
40868;DHT22;26586;50.708;22.412;2023-08-17T10:41:14;31.50;57.30
40868;DHT22;26586;50.708;22.412;2023-08-17T10:43:56;31.50;57.30
40868;DHT22;26586;50.708;22.412;2023-08-17T10:46:34;31.60;57.40
40868;DHT22;26586;50.708;22.412;2023-08-17T10:49:03;31.60;57.30
40868;DHT22;26586;50.708;22.412;2023-08-17T10:51:35;31.60;56.80
40868;DHT22;26586;50.708;22.412;2023-08-17T10:54:03;31.60;56.50
40868;DHT22;26586;50.708;22.412;2023-08-17T10:56:30;31.70;55.60
40868;DHT22;26586;50.708;22.412;2023-08-17T10:59:01;31.80;55.20
40868;DHT22;26586;50.708;22.412;2023-08-17T11:01:32;31.70;55.50
40868;DHT22;26586;50.708;22.412;2023-08-17T11:04:25;31.70;54.60
40868;DHT22;26586;50.708;22.412;2023-08-17T11:07:01;31.70;54.50
40868;DHT22;26586;50.708;22.412;2023-08-17T11:09:28;31.80;54.50
40868;DHT22;26586;50.708;22.412;2023-08-17T11:11:54;31.80;54.90
40868;DHT22;26586;50.708;22.412;2023-08-17T11:14:20;31.80;55.00
40868;DHT22;26586;50.708;22.412;2023-08-17T11:16:47;31.80;55.10
40868;DHT22;26586;50.708;22.412;2023-08-17T11:19:13;31.80;55.30
40868;DHT22;26586;50.708;22.412;2023-08-17T11:21:39;31.90;55.60
40868;DHT22;26586;50.708;22.412;2023-08-17T11:24:06;31.90;55.70
40868;DHT22;26586;50.708;22.412;2023-08-17T11:26:36;31.90;54.90
40868;DHT22;26586;50.708;22.412;2023-08-17T11:29:03;31.90;55.10
40868;DHT22;26586;50.708;22.412;2023-08-17T11:31:32;31.80;55.60
40868;DHT22;26586;50.708;22.412;2023-08-17T11:33:59;31.80;55.90
40868;DHT22;26586;50.708;22.412;2023-08-17T11:36:25;31.80;56.20
40868;DHT22;26586;50.708;22.412;2023-08-17T11:38:52;31.80;56.40
40868;DHT22;26586;50.708;22.412;2023-08-17T11:41:18;31.80;56.50
40868;DHT22;26586;50.708;22.412;2023-08-17T11:43:46;31.70;56.50
40868;DHT22;26586;50.708;22.412;2023-08-17T11:46:12;31.80;56.80
40868;DHT22;26586;50.708;22.412;2023-08-17T11:48:38;31.80;56.90
40868;DHT22;26586;50.708;22.412;2023-08-17T11:51:04;31.70;57.00
40868;DHT22;26586;50.708;22.412;2023-08-17T11:53:34;31.70;57.10
40868;DHT22;26586;50.708;22.412;2023-08-17T11:56:00;31.70;57.30
40868;DHT22;26586;50.708;22.412;2023-08-17T11:58:40;31.80;57.50
40868;DHT22;26586;50.708;22.412;2023-08-17T12:01:09;31.80;57.60
40868;DHT22;26586;50.708;22.412;2023-08-17T12:03:37;31.70;57.60
40868;DHT22;26586;50.708;22.412;2023-08-17T12:06:04;31.70;57.80
40868;DHT22;26586;50.708;22.412;2023-08-17T12:08:32;31.70;57.80
40868;DHT22;26586;50.708;22.412;2023-08-17T12:11:00;31.70;57.80
40868;DHT22;26586;50.708;22.412;2023-08-17T12:13:33;31.70;58.00
40868;DHT22;26586;50.708;22.412;2023-08-17T12:16:00;31.60;58.00
40868;DHT22;26586;50.708;22.412;2023-08-17T12:18:26;31.60;58.10
40868;DHT22;26586;50.708;22.412;2023-08-17T12:20:53;31.70;58.90
40868;DHT22;26586;50.708;22.412;2023-08-17T12:23:20;31.60;58.20
40868;DHT22;26586;50.708;22.412;2023-08-17T12:25:51;31.60;58.30
40868;DHT22;26586;50.708;22.412;2023-08-17T12:28:17;31.60;58.30
40868;DHT22;26586;50.708;22.412;2023-08-17T12:30:44;31.50;58.30
40868;DHT22;26586;50.708;22.412;2023-08-17T12:33:10;31.50;58.30
40868;DHT22;26586;50.708;22.412;2023-08-17T12:35:36;31.50;58.40
40868;DHT22;26586;50.708;22.412;2023-08-17T12:38:02;31.50;58.10
40868;DHT22;26586;50.708;22.412;2023-08-17T12:40:28;31.50;58.20
40868;DHT22;26586;50.708;22.412;2023-08-17T12:42:54;31.50;58.10
40868;DHT22;26586;50.708;22.412;2023-08-17T12:45:20;31.50;58.00
40868;DHT22;26586;50.708;22.412;2023-08-17T12:47:47;31.50;58.00
40868;DHT22;26586;50.708;22.412;2023-08-17T12:50:13;31.50;58.10
40868;DHT22;26586;50.708;22.412;2023-08-17T12:52:39;31.40;58.20
40868;DHT22;26586;50.708;22.412;2023-08-17T12:55:05;31.50;58.30
40868;DHT22;26586;50.708;22.412;2023-08-17T12:57:32;31.40;58.20
40868;DHT22;26586;50.708;22.412;2023-08-17T12:59:58;31.50;58.30
40868;DHT22;26586;50.708;22.412;2023-08-17T13:02:25;31.40;58.30
40868;DHT22;26586;50.708;22.412;2023-08-17T13:04:51;31.40;58.30
40868;DHT22;26586;50.708;22.412;2023-08-17T13:07:20;31.40;58.20
40868;DHT22;26586;50.708;22.412;2023-08-17T13:09:46;31.40;58.30
40868;DHT22;26586;50.708;22.412;2023-08-17T13:12:12;31.40;58.40
40868;DHT22;26586;50.708;22.412;2023-08-17T13:14:38;31.40;58.40
40868;DHT22;26586;50.708;22.412;2023-08-17T13:17:05;31.40;58.30
40868;DHT22;26586;50.708;22.412;2023-08-17T13:19:31;31.40;58.40
40868;DHT22;26586;50.708;22.412;2023-08-17T13:21:57;31.40;58.10
40868;DHT22;26586;50.708;22.412;2023-08-17T13:24:23;31.40;58.00
40868;DHT22;26586;50.708;22.412;2023-08-17T13:26:50;31.40;57.90
40868;DHT22;26586;50.708;22.412;2023-08-17T13:29:19;31.40;58.00
40868;DHT22;26586;50.708;22.412;2023-08-17T13:31:47;31.40;58.10
40868;DHT22;26586;50.708;22.412;2023-08-17T13:34:13;31.40;57.60
40868;DHT22;26586;50.708;22.412;2023-08-17T13:36:40;31.40;56.50
40868;DHT22;26586;50.708;22.412;2023-08-17T13:39:06;31.40;57.00
40868;DHT22;26586;50.708;22.412;2023-08-17T13:41:33;31.50;57.00
40868;DHT22;26586;50.708;22.412;2023-08-17T13:43:59;31.40;56.60
40868;DHT22;26586;50.708;22.412;2023-08-17T13:46:27;31.40;56.90
40868;DHT22;26586;50.708;22.412;2023-08-17T13:48:53;31.50;57.10
40868;DHT22;26586;50.708;22.412;2023-08-17T13:51:20;31.50;57.30
40868;DHT22;26586;50.708;22.412;2023-08-17T13:53:46;31.50;57.50
40868;DHT22;26586;50.708;22.412;2023-08-17T13:56:12;31.50;57.60
40868;DHT22;26586;50.708;22.412;2023-08-17T13:58:38;31.50;57.60
40868;DHT22;26586;50.708;22.412;2023-08-17T14:01:04;31.50;57.60
40868;DHT22;26586;50.708;22.412;2023-08-17T14:03:30;31.50;57.60
40868;DHT22;26586;50.708;22.412;2023-08-17T14:05:57;31.50;57.60
40868;DHT22;26586;50.708;22.412;2023-08-17T14:08:23;31.50;57.60
40868;DHT22;26586;50.708;22.412;2023-08-17T14:10:50;31.50;57.60
40868;DHT22;26586;50.708;22.412;2023-08-17T14:13:16;31.50;57.70
40868;DHT22;26586;50.708;22.412;2023-08-17T14:15:43;31.40;57.30
40868;DHT22;26586;50.708;22.412;2023-08-17T14:18:09;31.50;56.80
40868;DHT22;26586;50.708;22.412;2023-08-17T14:20:35;31.50;57.10
40868;DHT22;26586;50.708;22.412;2023-08-17T14:23:01;31.50;57.30
40868;DHT22;26586;50.708;22.412;2023-08-17T14:25:28;31.50;57.50
40868;DHT22;26586;50.708;22.412;2023-08-17T14:27:54;31.50;57.60
40868;DHT22;26586;50.708;22.412;2023-08-17T14:30:20;31.50;57.60
40868;DHT22;26586;50.708;22.412;2023-08-17T14:32:46;31.50;56.50
40868;DHT22;26586;50.708;22.412;2023-08-17T14:35:13;31.50;56.60
40868;DHT22;26586;50.708;22.412;2023-08-17T14:37:39;31.50;56.80
40868;DHT22;26586;50.708;22.412;2023-08-17T14:40:05;31.50;56.50
40868;DHT22;26586;50.708;22.412;2023-08-17T14:42:31;31.50;57.00
40868;DHT22;26586;50.708;22.412;2023-08-17T14:44:58;31.60;56.90
40868;DHT22;26586;50.708;22.412;2023-08-17T14:47:24;31.60;56.30
40868;DHT22;26586;50.708;22.412;2023-08-17T14:49:50;31.60;55.60
40868;DHT22;26586;50.708;22.412;2023-08-17T14:52:16;31.50;55.20
40868;DHT22;26586;50.708;22.412;2023-08-17T14:54:42;31.50;55.70
40868;DHT22;26586;50.708;22.412;2023-08-17T14:57:08;31.50;56.20
40868;DHT22;26586;50.708;22.412;2023-08-17T14:59:35;31.50;56.60
40868;DHT22;26586;50.708;22.412;2023-08-17T15:02:02;31.40;56.80
40868;DHT22;26586;50.708;22.412;2023-08-17T15:04:28;31.40;57.00
40868;DHT22;26586;50.708;22.412;2023-08-17T15:06:54;31.40;57.20
40868;DHT22;26586;50.708;22.412;2023-08-17T15:09:20;31.30;57.30
40868;DHT22;26586;50.708;22.412;2023-08-17T15:11:46;31.30;57.50
40868;DHT22;26586;50.708;22.412;2023-08-17T15:14:14;31.30;57.50
40868;DHT22;26586;50.708;22.412;2023-08-17T15:16:40;31.30;57.60
40868;DHT22;26586;50.708;22.412;2023-08-17T15:19:06;31.20;57.70
40868;DHT22;26586;50.708;22.412;2023-08-17T15:21:32;31.10;57.80
40868;DHT22;26586;50.708;22.412;2023-08-17T15:23:59;31.10;58.00
40868;DHT22;26586;50.708;22.412;2023-08-17T15:26:25;31.10;58.00